Higginsville, New York
Current Conditions -  °F | °C
As of 12:53 PM on Sunday 23 Nov 2014 (Local Time) from KRME Reporting Station
Few Clouds Few Clouds  
Wind Chill: 50°   Ceiling: Unl
Heat Index: 50°   Visibility: 10mi
Dew Point: 42°   Wind: 5mph
Humidity: 74%   Direction: 110°ESE
Pressure: 30.08"   Gusts: NA
Location:  43.1683°N, 75.6691°W
Report Text: KRME 231753Z 11004KT 10SM FEW065 FEW120 10/06 A3008 RMK AO2 SLP188 T01000056 10106 20044 56008
Loading
Personal Weather Stations






























Interactive Weather Map New forecast layout! Learn more

10-Day Weather Forecast

Advertisements
Track Severe Weather on mobile